Time;durP1;ratioP1;P1;durP2;ratioP2;P2;SDS_P1;SDS_P2;PMS_P1;PMS_P2;Temp;Humidity;BMP_temperature;BMP_pressure;BME280_temperature;BME280_humidity;BME280_pressure;Samples;Min_cycle;Max_cycle;Signal;HPM_P1;HPM_P2
2022/12/19 00:02:39;;;;;;;1999.90;999.90;;;-0.70;99.90;;;;;;6663727;88;20202;-76
2022/12/19 00:12:40;;;;;;;1999.90;999.90;;;-0.70;99.90;;;;;;6663794;88;20192;-76
2022/12/19 00:22:40;;;;;;;1999.90;999.90;;;-0.60;99.90;;;;;;6664287;88;20265;-76
2022/12/19 00:32:41;;;;;;;1999.90;999.90;;;-0.50;99.90;;;;;;6662005;88;20969;-77
2022/12/19 00:42:41;;;;;;;1999.90;999.90;;;-0.30;99.90;;;;;;6665287;89;20350;-77
2022/12/19 00:52:42;;;;;;;1999.90;999.90;;;-0.30;99.90;;;;;;6668391;89;20228;-77
2022/12/19 01:02:43;;;;;;;1999.90;999.90;;;-0.30;99.90;;;;;;6667313;88;20252;-77
2022/12/19 01:12:47;;;;;;;1999.90;999.90;;;-0.30;99.90;;;;;;6671590;88;20180;-77
2022/12/19 01:22:47;;;;;;;1999.90;999.90;;;-0.20;99.90;;;;;;6661824;88;20705;-77
2022/12/19 01:32:48;;;;;;;1999.90;999.90;;;-0.20;99.90;;;;;;6667083;88;20180;-76
2022/12/19 01:42:49;;;;;;;1999.90;999.90;;;-0.20;99.90;;;;;;6660507;88;20202;-76
2022/12/19 01:52:50;;;;;;;1999.90;999.90;;;-0.10;99.90;;;;;;6663237;88;20936;-77
2022/12/19 02:03:29;;;;;;;1999.90;999.90;;;-0.10;99.90;;;;;;6658266;88;20218;-76
2022/12/19 02:13:30;;;;;;;1999.90;999.90;;;0.00;99.90;;;;;;6678481;88;20714;-77
2022/12/19 02:23:54;;;;;;;1999.90;999.90;;;-0.10;99.90;;;;;;6664435;88;20654;-76
2022/12/19 02:34:37;;;;;;;1999.90;999.90;;;-0.10;99.90;;;;;;6668409;88;20655;-76
2022/12/19 02:44:50;;;;;;;1999.90;999.90;;;0.00;99.90;;;;;;6662597;89;20166;-76
2022/12/19 02:54:55;;;;;;;1999.90;999.90;;;0.00;99.90;;;;;;6661771;88;20309;-76
2022/12/19 03:04:58;;;;;;;1999.90;999.90;;;0.00;99.90;;;;;;6666586;88;20240;-76
2022/12/19 03:15:00;;;;;;;1999.90;999.90;;;0.10;99.90;;;;;;6669116;88;20196;-77
2022/12/19 03:25:01;;;;;;;1999.90;999.90;;;0.20;99.90;;;;;;6665055;88;20674;-77
2022/12/19 03:35:19;;;;;;;1999.90;999.90;;;0.30;99.90;;;;;;6665661;89;20613;-77
2022/12/19 03:45:28;;;;;;;1999.90;999.90;;;0.40;99.90;;;;;;6664784;89;20779;-77
2022/12/19 03:55:40;;;;;;;1999.90;999.90;;;0.50;99.90;;;;;;6675849;88;20672;-78
2022/12/19 04:05:41;;;;;;;1999.90;999.90;;;0.60;99.90;;;;;;6673825;88;20311;-78
2022/12/19 04:16:05;;;;;;;1999.90;999.90;;;0.60;99.90;;;;;;6689871;88;20740;-78
2022/12/19 04:26:06;;;;;;;1999.90;999.90;;;0.60;99.90;;;;;;6672937;88;20348;-78
2022/12/19 04:36:09;;;;;;;1999.90;999.90;;;0.60;99.90;;;;;;6661108;88;20187;-78
2022/12/19 04:46:09;;;;;;;1999.90;999.90;;;0.60;99.90;;;;;;6674722;88;21158;-79
2022/12/19 04:56:10;;;;;;;1999.90;999.90;;;0.70;99.90;;;;;;6676516;77;20218;-76
2022/12/19 05:06:13;;;;;;;1999.90;999.90;;;0.70;99.90;;;;;;6641380;88;20307;-76
2022/12/19 05:16:15;;;;;;;1999.90;999.90;;;0.80;99.90;;;;;;6633729;88;20222;-77
2022/12/19 05:26:15;;;;;;;1999.90;999.90;;;0.80;99.90;;;;;;6633730;88;20257;-77
2022/12/19 05:36:17;;;;;;;1999.90;999.90;;;0.80;99.90;;;;;;6626463;88;20247;-76
2022/12/19 05:46:18;;;;;;;1999.90;999.90;;;1.00;99.90;;;;;;6634473;88;20325;-76
2022/12/19 05:56:21;;;;;;;1999.90;999.90;;;1.10;99.90;;;;;;6632171;88;20189;-76
2022/12/19 06:06:24;;;;;;;1999.90;999.90;;;1.20;99.90;;;;;;6640170;88;20216;-76
2022/12/19 06:16:25;;;;;;;1999.90;999.90;;;1.30;99.90;;;;;;6640086;88;20571;-76
2022/12/19 06:26:25;;;;;;;1999.90;999.90;;;1.50;99.90;;;;;;6632858;89;20201;-78
2022/12/19 06:36:28;;;;;;;1999.90;999.90;;;1.60;99.90;;;;;;6635686;89;20307;-76
2022/12/19 06:46:29;;;;;;;1999.90;999.90;;;1.60;99.90;;;;;;6636784;89;20281;-77
2022/12/19 06:56:37;;;;;;;1999.90;999.90;;;1.70;99.90;;;;;;6633524;88;20239;-77
2022/12/19 07:06:38;;;;;;;1999.90;999.90;;;1.70;99.90;;;;;;6634206;89;20208;-76
2022/12/19 07:16:39;;;;;;;1999.90;999.90;;;1.70;99.90;;;;;;6638005;89;20275;-76
2022/12/19 07:26:42;;;;;;;1999.90;999.90;;;1.80;99.90;;;;;;6642847;88;20705;-76
2022/12/19 07:36:42;;;;;;;1999.90;999.90;;;1.80;99.90;;;;;;6635481;89;20299;-76
2022/12/19 07:46:43;;;;;;;1999.90;999.90;;;1.90;99.90;;;;;;6634127;89;20875;-77
2022/12/19 07:56:45;;;;;;;1999.90;999.90;;;2.20;99.90;;;;;;6637492;88;20636;-76
2022/12/19 08:06:45;;;;;;;1999.90;999.90;;;2.20;99.90;;;;;;6635503;89;20182;-76
2022/12/19 08:16:46;;;;;;;1999.90;999.90;;;2.20;99.90;;;;;;6637842;89;20692;-76
2022/12/19 08:26:46;;;;;;;1999.90;999.90;;;2.20;99.90;;;;;;6636149;89;20213;-76
2022/12/19 08:36:47;;;;;;;1999.90;999.90;;;2.30;99.90;;;;;;6634809;88;20212;-76
2022/12/19 08:46:47;;;;;;;1999.90;999.90;;;2.30;99.90;;;;;;6628670;89;20711;-76
2022/12/19 08:56:48;;;;;;;1999.90;999.90;;;2.40;99.90;;;;;;6632139;89;20537;-76
2022/12/19 09:06:49;;;;;;;1999.90;999.90;;;2.50;99.90;;;;;;6631579;89;21015;-76
2022/12/19 09:16:49;;;;;;;1999.90;999.90;;;2.70;99.90;;;;;;6635001;89;20311;-75
2022/12/19 09:26:50;;;;;;;1999.90;999.90;;;2.80;99.90;;;;;;6635843;88;20210;-76
2022/12/19 09:36:50;;;;;;;1999.90;999.90;;;3.00;99.90;;;;;;6635524;89;20196;-76
2022/12/19 09:47:03;;;;;;;1999.90;999.90;;;3.00;99.90;;;;;;6636689;89;21009;-76
2022/12/19 09:57:09;;;;;;;1999.90;999.90;;;3.10;99.90;;;;;;6632398;88;20246;-76
2022/12/19 10:07:10;;;;;;;1999.90;999.90;;;3.30;99.90;;;;;;6634275;88;20302;-76
2022/12/19 10:17:11;;;;;;;1999.90;999.90;;;3.30;99.90;;;;;;6638494;88;20193;-75
2022/12/19 10:27:38;;;;;;;1999.90;999.90;;;3.50;99.90;;;;;;6639242;89;20308;-76
2022/12/19 10:37:49;;;;;;;1999.90;999.90;;;3.70;99.90;;;;;;6639641;88;20284;-76
2022/12/19 10:47:55;;;;;;;1999.90;999.90;;;3.80;99.90;;;;;;6634866;89;20495;-75
2022/12/19 11:08:05;;;;;;;1999.90;999.90;;;3.90;99.90;;;;;;6726822;88;20233;-76
2022/12/19 11:18:07;;;;;;;1999.90;999.90;;;3.90;99.90;;;;;;6715031;88;20665;-77
2022/12/19 11:28:23;;;;;;;1999.90;999.90;;;4.00;99.90;;;;;;6711806;88;20293;-76
2022/12/19 11:38:41;;;;;;;1999.90;999.90;;;4.00;99.90;;;;;;6698885;88;20200;-74
2022/12/19 11:49:06;;;;;;;1999.90;999.90;;;4.20;99.90;;;;;;6703526;88;20223;-75
2022/12/19 11:59:30;;;;;;;1999.90;999.90;;;4.20;99.90;;;;;;6702043;88;20193;-76
2022/12/19 12:10:00;;;;;;;1999.90;999.90;;;4.40;99.90;;;;;;6709993;88;20232;-75
2022/12/19 12:20:31;;;;;;;1999.90;999.90;;;4.60;99.90;;;;;;6705389;88;20323;-76
2022/12/19 12:30:46;;;;;;;1999.90;999.90;;;4.70;99.90;;;;;;6712085;88;20211;-76
2022/12/19 12:41:16;;;;;;;1999.90;999.90;;;4.60;99.90;;;;;;6714916;88;20929;-76
2022/12/19 12:51:17;;;;;;;1999.90;999.90;;;4.70;99.90;;;;;;6711671;88;20290;-75
2022/12/19 13:01:27;;;;;;;1999.90;999.90;;;4.80;99.90;;;;;;6709629;88;20236;-75
2022/12/19 13:22:08;;;;;;;1999.90;999.90;;;5.20;99.90;;;;;;6713363;88;20679;-75
2022/12/19 13:32:15;;;;;;;1999.90;999.90;;;5.30;99.90;;;;;;6707569;88;20202;-75
2022/12/19 13:52:47;;;;;;;1999.90;999.90;;;5.50;99.90;;;;;;6706267;88;20097;-75
2022/12/19 14:02:57;;;;;;;1999.90;999.90;;;5.60;99.90;;;;;;6715669;88;20252;-75
2022/12/19 14:23:35;;;;;;;1999.90;999.90;;;5.60;99.90;;;;;;6692048;88;20194;-74
2022/12/19 14:33:45;;;;;;;1999.90;999.90;;;5.60;99.90;;;;;;6710228;88;20219;-74
2022/12/19 14:43:53;;;;;;;1999.90;999.90;;;5.60;99.90;;;;;;6711410;88;20718;-75
2022/12/19 14:54:16;;;;;;;1999.90;999.90;;;5.60;99.90;;;;;;6709451;88;20609;-75
2022/12/19 15:04:23;;;;;;;1999.90;999.90;;;5.80;99.90;;;;;;6713237;88;20185;-75
2022/12/19 15:14:26;;;;;;;1999.90;999.90;;;5.80;99.90;;;;;;6713672;88;20332;-74
2022/12/19 15:24:27;;;;;;;1999.90;999.90;;;5.70;99.90;;;;;;6715878;88;20198;-74
2022/12/19 15:34:30;;;;;;;1999.90;999.90;;;5.70;99.90;;;;;;6715145;88;20194;-74
2022/12/19 15:44:39;;;;;;;1999.90;999.90;;;5.80;99.90;;;;;;6712232;88;20317;-74
2022/12/19 15:54:40;;;;;;;1999.90;999.90;;;6.00;99.90;;;;;;6721284;88;20194;-74
2022/12/19 16:04:40;;;;;;;1999.90;999.90;;;6.10;99.90;;;;;;6722546;88;20221;-74
2022/12/19 16:14:42;;;;;;;1999.90;999.90;;;6.00;99.90;;;;;;6714386;88;20262;-74
2022/12/19 16:24:42;;;;;;;1999.90;999.90;;;6.00;99.90;;;;;;6713382;88;20208;-74
2022/12/19 16:34:43;;;;;;;1999.90;999.90;;;6.00;99.90;;;;;;6717289;88;20201;-74
2022/12/19 16:44:46;;;;;;;1999.90;999.90;;;6.00;99.90;;;;;;6718358;88;20266;-75
2022/12/19 16:54:46;;;;;;;1999.90;999.90;;;6.00;99.90;;;;;;6711519;88;21039;-76
2022/12/19 17:04:47;;;;;;;1999.90;999.90;;;6.00;99.90;;;;;;6709074;88;20338;-77
2022/12/19 17:14:47;;;;;;;1999.90;999.90;;;6.10;99.90;;;;;;6717810;88;20645;-75
2022/12/19 17:24:48;;;;;;;1999.90;999.90;;;6.20;99.90;;;;;;6719851;88;20358;-74
2022/12/19 17:34:48;;;;;;;1999.90;999.90;;;6.30;99.90;;;;;;6711326;88;20214;-76
2022/12/19 17:44:49;;;;;;;1999.90;999.90;;;6.30;99.90;;;;;;6719999;88;21678;-77
2022/12/19 17:54:50;;;;;;;1999.90;999.90;;;6.40;99.90;;;;;;6714195;88;20291;-78
2022/12/19 18:04:51;;;;;;;1999.90;999.90;;;6.60;99.90;;;;;;6714333;88;20685;-76
2022/12/19 18:14:52;;;;;;;1999.90;999.90;;;6.60;99.90;;;;;;6710949;88;20330;-76
2022/12/19 18:24:53;;;;;;;1999.90;999.90;;;6.90;99.90;;;;;;6706096;88;20225;-76
2022/12/19 18:34:53;;;;;;;1999.90;999.90;;;6.90;99.90;;;;;;6714897;88;20309;-76
2022/12/19 18:44:54;;;;;;;1999.90;999.90;;;7.20;99.90;;;;;;6710742;88;20221;-76
2022/12/19 18:54:55;;;;;;;1999.90;999.90;;;7.40;99.90;;;;;;6708666;88;20704;-74
2022/12/19 19:04:57;;;;;;;1999.90;999.90;;;7.60;99.90;;;;;;6710078;88;20194;-75
2022/12/19 19:14:58;;;;;;;1999.90;999.90;;;7.70;99.90;;;;;;6711582;88;20599;-76
2022/12/19 19:24:58;;;;;;;1999.90;999.90;;;7.60;99.90;;;;;;6717166;88;20281;-75
2022/12/19 19:34:59;;;;;;;1999.90;999.90;;;7.60;99.90;;;;;;6716195;88;20200;-76
2022/12/19 19:45:00;;;;;;;1999.90;999.90;;;7.80;99.90;;;;;;6719914;88;20214;-76
2022/12/19 19:55:00;;;;;;;1999.90;999.90;;;8.20;99.90;;;;;;6715120;88;20214;-75
2022/12/19 20:05:01;;;;;;;1999.90;999.90;;;8.60;99.90;;;;;;6714365;88;20273;-76
2022/12/19 20:15:02;;;;;;;1999.90;999.90;;;8.60;99.90;;;;;;6717710;88;20200;-76
2022/12/19 20:25:03;;;;;;;1999.90;999.90;;;8.50;99.90;;;;;;6725727;88;20207;-77
2022/12/19 20:35:04;;;;;;;1999.90;999.90;;;8.40;99.90;;;;;;6718596;88;20177;-77
2022/12/19 20:45:05;;;;;;;1999.90;999.90;;;8.40;99.90;;;;;;6721194;88;20213;-76
2022/12/19 20:55:08;;;;;;;1999.90;999.90;;;8.80;99.90;;;;;;6715946;88;20201;-76
2022/12/19 21:05:09;;;;;;;1999.90;999.90;;;9.00;99.90;;;;;;6726870;88;20276;-75
2022/12/19 21:15:09;;;;;;;1999.90;999.90;;;9.90;99.90;;;;;;6707395;88;20247;-74
2022/12/19 21:25:10;;;;;;;1999.90;999.90;;;10.70;99.90;;;;;;6710337;88;20646;-76
2022/12/19 21:35:10;;;;;;;1999.90;999.90;;;10.70;99.90;;;;;;6713171;88;20371;-76
2022/12/19 21:45:13;;;;;;;1999.90;999.90;;;10.70;99.90;;;;;;6717061;88;20185;-76
2022/12/19 21:55:14;;;;;;;1999.90;999.90;;;10.90;99.90;;;;;;6692766;85;63095;-76
2022/12/19 22:05:14;;;;;;;1999.90;999.90;;;11.20;99.90;;;;;;6690562;88;20234;-77
2022/12/19 22:15:15;;;;;;;1999.90;999.90;;;11.30;99.90;;;;;;6699636;88;20183;-76
2022/12/19 22:25:16;;;;;;;1999.90;999.90;;;11.70;99.90;;;;;;6696059;88;21104;-77
2022/12/19 22:35:16;;;;;;;1999.90;999.90;;;11.70;99.90;;;;;;6700757;88;20190;-77
2022/12/19 22:45:17;;;;;;;1999.90;999.90;;;11.80;99.90;;;;;;6695528;88;20325;-76
2022/12/19 22:55:17;;;;;;;1999.90;999.90;;;12.10;99.90;;;;;;6695289;88;20332;-76
2022/12/19 23:05:18;;;;;;;1999.90;999.90;;;12.20;99.90;;;;;;6728904;77;20174;-77
2022/12/19 23:15:19;;;;;;;1999.90;999.90;;;12.30;99.90;;;;;;6715486;88;20616;-75
2022/12/19 23:25:19;;;;;;;1999.90;999.90;;;12.30;99.90;;;;;;6708329;88;20197;-75
2022/12/19 23:35:19;;;;;;;1999.90;999.90;;;12.40;99.90;;;;;;6708252;88;20256;-75
2022/12/19 23:45:21;;;;;;;1999.90;999.90;;;12.30;99.90;;;;;;6710763;88;20324;-75
2022/12/19 23:55:21;;;;;;;1999.90;999.90;;;12.30;99.90;;;;;;6709108;88;20604;-75
